createdAt,value
2018-08-19T00:00:38.960Z,89.69
2018-08-19T00:01:39.073Z,89.40
2018-08-19T00:02:38.911Z,89.98
2018-08-19T00:03:38.987Z,89.79
2018-08-19T00:04:38.865Z,89.50
2018-08-19T00:05:38.999Z,89.12
2018-08-19T00:06:38.819Z,90.22
2018-08-19T00:07:38.912Z,89.79
2018-08-19T00:08:38.779Z,89.84
2018-08-19T00:09:38.923Z,89.65
2018-08-19T00:10:38.745Z,89.46
2018-08-19T00:11:38.846Z,89.50
2018-08-19T00:12:38.692Z,89.75
2018-08-19T00:13:38.853Z,89.65
2018-08-19T00:14:38.651Z,89.65
2018-08-19T00:15:38.764Z,89.65
2018-08-19T00:16:38.603Z,89.84
2018-08-19T00:17:38.776Z,89.84
2018-08-19T00:18:38.564Z,90.22
2018-08-19T00:19:38.686Z,90.32
2018-08-19T00:20:38.522Z,90.03
2018-08-19T00:21:38.604Z,90.42
2018-08-19T00:22:38.478Z,90.52
2018-08-19T00:23:38.613Z,89.84
2018-08-19T00:24:38.431Z,89.84
2018-08-19T00:25:38.526Z,90.22
2018-08-19T00:26:38.387Z,90.32
2018-08-19T00:27:38.539Z,90.32
2018-08-19T00:28:38.365Z,90.32
2018-08-19T00:29:38.452Z,89.55
2018-08-19T00:30:38.305Z,90.22
2018-08-19T00:31:38.464Z,89.84
2018-08-19T00:32:38.259Z,90.32
2018-08-19T00:33:38.381Z,90.32
2018-08-19T00:34:38.221Z,90.13
2018-08-19T00:35:38.391Z,90.80
2018-08-19T00:36:38.174Z,90.52
2018-08-19T00:37:38.305Z,90.32
2018-08-19T00:38:38.127Z,90.52
2018-08-19T00:39:38.321Z,90.32
2018-08-19T00:40:38.087Z,90.42
2018-08-19T00:41:38.232Z,90.13
2018-08-19T00:42:38.041Z,89.94
2018-08-19T00:43:38.140Z,90.42
2018-08-19T00:44:37.996Z,90.32
2018-08-19T00:45:38.154Z,90.32
2018-08-19T00:46:37.992Z,90.32
2018-08-19T00:47:38.067Z,89.84
2018-08-19T00:48:37.911Z,90.13
2018-08-19T00:49:37.979Z,90.32
2018-08-19T00:50:37.881Z,90.52
2018-08-19T00:51:37.892Z,90.32
2018-08-19T00:52:37.824Z,91.09
2018-08-19T00:53:37.903Z,91.19
2018-08-19T00:54:37.836Z,90.70
2018-08-19T00:55:37.827Z,90.80
2018-08-19T00:56:37.734Z,91.09
2018-08-19T00:57:37.833Z,90.66
2018-08-19T00:58:37.695Z,90.70
2018-08-19T00:59:37.747Z,91.09
2018-08-19T01:00:37.648Z,90.99
2018-08-19T01:01:37.758Z,90.56
2018-08-19T01:02:37.622Z,91.24
2018-08-19T01:03:37.678Z,91.62
2018-08-19T01:04:37.569Z,91.72
2018-08-19T01:05:37.579Z,91.52
2018-08-19T01:06:37.521Z,91.33
2018-08-19T01:07:37.610Z,91.62
2018-08-19T01:08:37.477Z,91.91
2018-08-19T01:09:37.506Z,91.91
2018-08-19T01:10:37.435Z,92.00
2018-08-19T01:11:37.527Z,91.81
2018-08-19T01:12:37.404Z,91.72
2018-08-19T01:13:37.434Z,91.72
2018-08-19T01:14:37.346Z,92.39
2018-08-19T01:15:37.471Z,92.96
2018-08-19T01:16:37.303Z,92.77
2018-08-19T01:17:37.358Z,92.48
2018-08-19T01:18:37.270Z,92.96
2018-08-19T01:19:37.375Z,92.48
2018-08-19T01:20:37.217Z,92.96
2018-08-19T01:21:37.288Z,92.77
2018-08-19T01:22:37.173Z,92.48
2018-08-19T01:23:37.297Z,93.25
2018-08-19T01:24:37.122Z,92.96
2018-08-19T01:25:37.213Z,92.77
2018-08-19T01:26:37.083Z,92.86
2018-08-19T01:27:37.124Z,93.25
2018-08-19T01:28:37.042Z,93.54
2018-08-19T01:29:37.141Z,93.63
2018-08-19T01:30:36.993Z,93.54
2018-08-19T01:31:37.049Z,93.44
2018-08-19T01:32:36.959Z,93.44
2018-08-19T01:33:37.064Z,93.54
2018-08-19T01:34:36.902Z,93.63
2018-08-19T01:35:36.976Z,93.44
2018-08-19T01:36:36.866Z,93.82
2018-08-19T01:37:36.990Z,93.63
2018-08-19T01:38:36.822Z,94.40
2018-08-19T01:39:36.900Z,94.40
2018-08-19T01:40:36.771Z,93.92
2018-08-19T01:41:36.921Z,93.92
2018-08-19T01:42:36.732Z,93.73
2018-08-19T01:43:36.838Z,93.63
2018-08-19T01:44:36.686Z,94.31
2018-08-19T01:45:36.738Z,94.40
2018-08-19T01:46:36.642Z,94.31
2018-08-19T01:47:36.753Z,94.74
2018-08-19T01:48:36.597Z,94.88
2018-08-19T01:49:36.662Z,94.88
2018-08-19T01:50:36.549Z,94.45
2018-08-19T01:51:36.678Z,94.49
2018-08-19T01:52:36.512Z,95.26
2018-08-19T01:53:36.589Z,94.35
2018-08-19T01:54:36.470Z,94.21
2018-08-19T01:55:36.607Z,94.35
2018-08-19T01:56:36.419Z,94.88
2018-08-19T01:57:36.518Z,94.79
2018-08-19T01:58:36.378Z,95.26
2018-08-19T01:59:36.533Z,95.31
2018-08-19T02:00:36.332Z,95.21
2018-08-19T02:01:36.445Z,95.41
2018-08-19T02:02:36.284Z,94.93
2018-08-19T02:03:36.355Z,95.12
2018-08-19T02:04:36.247Z,95.12
2018-08-19T02:05:36.373Z,95.41
2018-08-19T02:06:36.195Z,95.21
2018-08-19T02:07:36.283Z,95.21
2018-08-19T02:08:36.156Z,94.74
2018-08-19T02:09:36.305Z,95.12
2018-08-19T02:10:36.114Z,95.03
2018-08-19T02:11:36.206Z,95.41
2018-08-19T02:12:36.059Z,95.89
2018-08-19T02:13:36.230Z,95.79
2018-08-19T02:14:36.017Z,96.27
2018-08-19T02:15:36.182Z,95.89
2018-08-19T02:16:35.977Z,96.66
2018-08-19T02:17:36.146Z,96.47
2018-08-19T02:18:35.934Z,96.08
2018-08-19T02:19:36.062Z,96.08
2018-08-19T02:20:35.947Z,95.89
2018-08-19T02:21:35.977Z,96.18
2018-08-19T02:22:35.842Z,96.47
2018-08-19T02:23:35.992Z,95.98
2018-08-19T02:24:35.795Z,96.75
2018-08-19T02:25:35.895Z,96.66
2018-08-19T02:26:35.747Z,96.27
2018-08-19T02:27:35.925Z,96.37
2018-08-19T02:28:35.701Z,96.47
2018-08-19T02:29:35.823Z,96.56
2018-08-19T02:30:35.663Z,96.47
2018-08-19T02:31:35.848Z,96.27
2018-08-19T02:32:35.615Z,96.37
2018-08-19T02:33:35.749Z,96.56
2018-08-19T02:34:35.564Z,96.85
2018-08-19T02:35:35.671Z,96.85
2018-08-19T02:36:35.530Z,96.94
2018-08-19T02:37:35.722Z,96.85
2018-08-19T02:38:35.487Z,97.42
2018-08-19T02:39:35.588Z,96.85
2018-08-19T02:40:35.443Z,96.66
2018-08-19T02:41:35.603Z,96.85
2018-08-19T02:42:35.391Z,97.42
2018-08-19T02:43:35.514Z,97.33
2018-08-19T02:44:35.346Z,98.38
2018-08-19T02:45:35.425Z,97.33
2018-08-19T02:46:35.304Z,97.33
2018-08-19T02:47:35.337Z,97.42
2018-08-19T02:48:35.252Z,98.00
2018-08-19T02:49:35.351Z,97.23
2018-08-19T02:50:35.227Z,97.66
2018-08-19T02:51:35.263Z,97.61
2018-08-19T02:52:35.167Z,98.19
2018-08-19T02:53:35.173Z,97.23
2018-08-19T02:54:35.114Z,97.52
2018-08-19T02:55:35.193Z,97.38
2018-08-19T02:56:35.074Z,97.85
2018-08-19T02:57:35.099Z,97.33
2018-08-19T02:58:35.032Z,98.48
2018-08-19T02:59:35.119Z,98.05
2018-08-19T03:00:34.993Z,97.95
2018-08-19T03:01:35.030Z,98.14
2018-08-19T03:02:34.936Z,97.85
2018-08-19T03:03:35.018Z,98.14
2018-08-19T03:04:34.902Z,98.14
2018-08-19T03:05:34.955Z,98.14
2018-08-19T03:06:34.855Z,97.85
2018-08-19T03:07:34.976Z,98.43
2018-08-19T03:08:34.797Z,98.81
2018-08-19T03:09:34.879Z,98.62
2018-08-19T03:10:34.760Z,98.52
2018-08-19T03:11:34.791Z,98.24
2018-08-19T03:12:34.711Z,98.52
2018-08-19T03:13:34.806Z,97.95
2018-08-19T03:14:34.672Z,98.52
2018-08-19T03:15:34.717Z,97.95
2018-08-19T03:16:34.621Z,98.91
2018-08-19T03:17:34.729Z,98.62
2018-08-19T03:18:34.586Z,98.52
2018-08-19T03:19:34.637Z,98.43
2018-08-19T03:20:34.542Z,98.62
2018-08-19T03:21:34.657Z,98.72
2018-08-19T03:22:34.491Z,98.43
2018-08-19T03:23:34.568Z,99.01
2018-08-19T03:24:34.451Z,99.48
2018-08-19T03:25:34.479Z,99.58
2018-08-19T03:26:34.401Z,99.19
2018-08-19T03:27:34.493Z,99.58
2018-08-19T03:28:34.361Z,99.29
2018-08-19T03:29:34.404Z,99.19
2018-08-19T03:30:34.308Z,99.10
2018-08-19T03:31:34.432Z,99.39
2018-08-19T03:32:34.272Z,99.19
2018-08-19T03:33:34.356Z,99.19
2018-08-19T03:34:34.218Z,99.39
2018-08-19T03:35:34.344Z,99.01
2018-08-19T03:36:34.172Z,99.29
2018-08-19T03:37:34.255Z,99.39
2018-08-19T03:38:34.126Z,99.01
2018-08-19T03:39:34.268Z,99.10
2018-08-19T03:40:34.090Z,99.63
2018-08-19T03:41:34.184Z,99.96
2018-08-19T03:42:34.049Z,99.72
2018-08-19T03:43:34.095Z,99.91
2018-08-19T03:44:33.993Z,99.99
2018-08-19T03:45:34.106Z,99.99
2018-08-19T03:46:33.947Z,99.99
2018-08-19T03:47:34.021Z,99.99
2018-08-19T03:48:33.904Z,99.99
2018-08-19T03:49:34.033Z,99.99
2018-08-19T03:50:33.860Z,99.99
2018-08-19T03:51:33.946Z,99.99
2018-08-19T03:52:33.814Z,99.99
2018-08-19T03:53:33.962Z,99.99
2018-08-19T03:54:33.762Z,99.99
2018-08-19T03:55:33.879Z,99.91
2018-08-19T03:56:33.725Z,99.99
2018-08-19T03:57:33.789Z,99.99
2018-08-19T03:58:33.677Z,99.99
2018-08-19T03:59:33.800Z,99.99
2018-08-19T04:00:33.636Z,99.99
2018-08-19T04:01:33.711Z,99.99
2018-08-19T04:02:33.592Z,99.99
2018-08-19T04:03:33.725Z,99.99
2018-08-19T04:04:33.532Z,99.99
2018-08-19T04:05:33.637Z,99.99
2018-08-19T04:06:33.498Z,99.99
2018-08-19T04:07:33.648Z,99.99
2018-08-19T04:08:33.451Z,99.99
2018-08-19T04:09:33.567Z,99.99
2018-08-19T04:10:33.409Z,99.99
2018-08-19T04:11:33.479Z,99.99
2018-08-19T04:12:33.373Z,99.99
2018-08-19T04:13:33.487Z,99.99
2018-08-19T04:14:33.314Z,99.99
2018-08-19T04:15:33.394Z,99.99
2018-08-19T04:16:33.265Z,99.99
2018-08-19T04:17:33.417Z,99.99
2018-08-19T04:18:33.219Z,99.99
2018-08-19T04:19:33.329Z,99.99
2018-08-19T04:20:33.174Z,99.99
2018-08-19T04:21:33.341Z,99.99
2018-08-19T04:22:33.129Z,99.99
2018-08-19T04:23:33.316Z,99.99
2018-08-19T04:24:33.082Z,99.99
2018-08-19T04:25:33.164Z,99.99
2018-08-19T04:26:33.036Z,99.99
2018-08-19T04:27:33.180Z,99.99
2018-08-19T04:28:32.996Z,99.99
2018-08-19T04:29:33.098Z,99.99
2018-08-19T04:30:32.945Z,99.99
2018-08-19T04:31:33.107Z,99.99
2018-08-19T04:32:32.903Z,99.99
2018-08-19T04:33:33.016Z,99.99
2018-08-19T04:34:32.860Z,99.99
2018-08-19T04:35:33.037Z,99.99
2018-08-19T04:36:32.811Z,99.99
2018-08-19T04:37:32.937Z,99.99
2018-08-19T04:38:32.766Z,99.99
2018-08-19T04:39:32.956Z,99.99
2018-08-19T04:40:32.724Z,99.99
2018-08-19T04:41:32.873Z,99.99
2018-08-19T04:42:32.671Z,99.99
2018-08-19T04:43:32.678Z,99.99
2018-08-19T04:44:32.634Z,99.99
2018-08-19T04:45:32.695Z,99.99
2018-08-19T04:46:32.619Z,99.99
2018-08-19T04:47:32.603Z,99.99
2018-08-19T04:48:32.535Z,99.99
2018-08-19T04:49:32.623Z,99.99
2018-08-19T04:50:32.486Z,99.99
2018-08-19T04:51:32.532Z,99.99
2018-08-19T04:52:32.448Z,99.99
2018-08-19T04:53:32.540Z,99.99
2018-08-19T04:54:32.394Z,99.99
2018-08-19T04:55:32.458Z,99.99
2018-08-19T04:56:32.355Z,99.99
2018-08-19T04:57:32.371Z,99.99
2018-08-19T04:58:32.307Z,99.99
2018-08-19T04:59:32.374Z,99.99
2018-08-19T05:00:32.265Z,99.99
2018-08-19T05:01:32.293Z,99.99
2018-08-19T05:02:32.252Z,99.99
2018-08-19T05:03:32.314Z,99.99
2018-08-19T05:04:32.170Z,99.99
2018-08-19T05:05:32.217Z,99.99
2018-08-19T05:06:32.121Z,99.99
2018-08-19T05:07:32.232Z,99.99
2018-08-19T05:08:32.183Z,99.99
2018-08-19T05:09:32.151Z,99.99
2018-08-19T05:10:32.033Z,99.99
2018-08-19T05:11:32.055Z,99.99
2018-08-19T05:12:31.985Z,99.99
2018-08-19T05:13:32.083Z,99.99
2018-08-19T05:14:31.942Z,99.99
2018-08-19T05:15:32.066Z,99.99
2018-08-19T05:16:31.897Z,99.99
2018-08-19T05:17:31.995Z,99.99
2018-08-19T05:18:31.856Z,99.99
2018-08-19T05:19:31.912Z,99.99
2018-08-19T05:20:31.803Z,99.99
2018-08-19T05:21:31.927Z,99.99
2018-08-19T05:22:31.828Z,99.99
2018-08-19T05:23:31.838Z,99.99
2018-08-19T05:24:31.709Z,99.99
2018-08-19T05:25:31.751Z,99.99
2018-08-19T05:26:31.666Z,99.99
2018-08-19T05:27:31.765Z,99.99
2018-08-19T05:28:31.696Z,99.99
2018-08-19T05:29:31.678Z,99.99
2018-08-19T05:30:31.570Z,99.99
2018-08-19T05:31:31.760Z,99.99
2018-08-19T05:32:31.529Z,99.99
2018-08-19T05:33:31.605Z,99.99
2018-08-19T05:34:31.480Z,99.99
2018-08-19T05:35:31.612Z,99.99
2018-08-19T05:36:31.436Z,99.99
2018-08-19T05:37:31.530Z,99.99
2018-08-19T05:38:31.401Z,99.99
2018-08-19T05:39:31.440Z,99.99
2018-08-19T05:40:31.345Z,99.99
2018-08-19T05:41:31.453Z,99.99
2018-08-19T05:42:31.298Z,99.99
2018-08-19T05:43:31.365Z,99.99
2018-08-19T05:44:31.261Z,99.99
2018-08-19T05:45:31.380Z,99.99
2018-08-19T05:46:31.208Z,99.99
2018-08-19T05:47:31.293Z,99.99
2018-08-19T05:48:31.162Z,99.99
2018-08-19T05:49:31.307Z,99.99
2018-08-19T05:50:31.113Z,99.99
2018-08-19T05:51:31.219Z,99.99
2018-08-19T05:52:31.066Z,99.99
2018-08-19T05:53:31.237Z,99.99
2018-08-19T05:54:31.027Z,99.99
2018-08-19T05:55:31.182Z,99.99
2018-08-19T05:56:30.978Z,99.99
2018-08-19T05:57:31.057Z,99.99
2018-08-19T05:58:30.930Z,99.99
2018-08-19T06:23:07.541Z,99.99
2018-08-19T06:24:07.434Z,99.99
2018-08-19T06:25:07.432Z,99.99
2018-08-19T06:26:07.382Z,99.99
2018-08-19T06:27:07.352Z,99.99
2018-08-19T06:28:07.348Z,99.99
2018-08-19T06:29:07.302Z,99.49
2018-08-19T06:30:07.364Z,99.05
2018-08-19T06:31:07.274Z,99.63
2018-08-19T06:32:07.277Z,99.15
2018-08-19T06:33:07.205Z,98.77
2018-08-19T06:34:07.301Z,98.29
2018-08-19T06:35:07.185Z,98.86
2018-08-19T06:36:07.198Z,98.00
2018-08-19T06:37:07.117Z,98.00
2018-08-19T06:38:07.110Z,97.42
2018-08-19T06:39:07.065Z,98.67
2018-08-19T06:40:07.126Z,98.43
2018-08-19T06:41:07.027Z,98.24
2018-08-19T06:42:07.035Z,97.66
2018-08-19T06:43:06.992Z,97.09
2018-08-19T06:44:07.049Z,96.32
2018-08-19T06:45:06.923Z,95.55
2018-08-19T06:46:06.959Z,96.03
2018-08-19T06:47:06.880Z,96.03
2018-08-19T06:48:06.973Z,94.88
2018-08-19T06:49:06.829Z,94.31
2018-08-19T06:50:06.988Z,94.59
2018-08-19T06:51:06.804Z,95.84
2018-08-19T06:52:06.952Z,94.88
2018-08-19T06:53:06.743Z,94.01
2018-08-19T06:54:06.718Z,94.69
2018-08-19T06:55:06.820Z,95.31
2018-08-19T06:56:06.674Z,94.54
2018-08-19T06:57:06.831Z,95.03
2018-08-19T06:58:06.636Z,94.45
2018-08-19T06:59:06.743Z,93.19
2018-08-19T07:00:06.584Z,93.77
2018-08-19T07:01:06.758Z,93.58
2018-08-19T07:02:06.545Z,93.77
2018-08-19T07:03:06.591Z,93.01
2018-08-19T07:04:06.589Z,92.72
2018-08-19T07:05:06.584Z,92.72
2018-08-19T07:06:06.458Z,92.81
2018-08-19T07:07:06.510Z,92.72
2018-08-19T07:08:06.408Z,92.43
2018-08-19T07:09:06.387Z,91.66
2018-08-19T07:10:06.364Z,92.81
2018-08-19T07:11:06.422Z,91.95
2018-08-19T07:12:06.332Z,91.08
2018-08-19T07:13:06.335Z,92.24
2018-08-19T07:14:06.281Z,92.43
2018-08-19T07:15:06.348Z,92.24
2018-08-19T07:16:06.238Z,91.28
2018-08-19T07:17:06.259Z,91.08
2018-08-19T07:18:06.190Z,90.84
2018-08-19T07:19:06.274Z,90.99
2018-08-19T07:20:06.148Z,91.03
2018-08-19T07:21:06.188Z,90.89
2018-08-19T07:22:06.103Z,90.31
2018-08-19T07:23:06.203Z,90.60
2018-08-19T07:24:06.061Z,89.64
2018-08-19T07:25:06.112Z,89.88
2018-08-19T07:26:06.018Z,89.78
2018-08-19T07:27:06.033Z,89.78
2018-08-19T07:28:05.968Z,89.26
2018-08-19T07:29:06.037Z,89.69
2018-08-19T07:30:05.933Z,89.30
2018-08-19T07:31:05.954Z,89.50
2018-08-19T07:32:05.890Z,89.88
2018-08-19T07:33:05.966Z,88.82
2018-08-19T07:34:05.843Z,88.44
2018-08-19T07:35:05.877Z,89.11
2018-08-19T07:36:05.801Z,89.21
2018-08-19T07:37:05.940Z,87.29
2018-08-19T07:38:05.757Z,86.42
2018-08-19T07:39:05.802Z,87.48
2018-08-19T07:40:05.718Z,87.48
2018-08-19T07:41:05.714Z,87.29
2018-08-19T07:42:05.675Z,87.09
2018-08-19T07:43:05.734Z,87.38
2018-08-19T07:44:05.630Z,86.99
2018-08-19T07:45:05.641Z,87.62
2018-08-19T07:46:05.591Z,87.38
2018-08-19T07:47:05.654Z,87.81
2018-08-19T07:48:05.546Z,87.81
2018-08-19T07:49:05.568Z,87.42
2018-08-19T07:50:05.503Z,87.52
2018-08-19T07:51:05.580Z,86.75
2018-08-19T07:52:05.461Z,86.46
2018-08-19T07:53:05.492Z,86.36
2018-08-19T07:54:05.412Z,84.83
2018-08-19T07:55:05.507Z,85.78
2018-08-19T07:56:05.373Z,85.16
2018-08-19T07:57:05.418Z,85.06
2018-08-19T07:58:05.330Z,84.48
2018-08-19T07:59:05.330Z,84.10
2018-08-19T08:00:05.285Z,84.39
2018-08-19T08:01:05.345Z,84.58
2018-08-19T08:02:05.245Z,84.97
2018-08-19T08:03:05.255Z,86.12
2018-08-19T08:04:05.195Z,85.25
2018-08-19T08:05:05.269Z,83.04
2018-08-19T08:06:05.170Z,83.52
2018-08-19T08:07:05.181Z,82.85
2018-08-19T08:08:05.115Z,83.81
2018-08-19T08:09:05.196Z,82.41
2018-08-19T08:10:05.079Z,81.79
2018-08-19T08:11:05.218Z,81.98
2018-08-19T08:12:05.038Z,81.54
2018-08-19T08:13:05.122Z,82.02
2018-08-19T08:14:04.993Z,82.41
2018-08-19T08:15:05.033Z,81.35
2018-08-19T08:16:04.946Z,81.16
2018-08-19T08:17:04.945Z,81.16
2018-08-19T08:18:04.907Z,80.77
2018-08-19T08:19:04.959Z,80.10
2018-08-19T08:20:04.864Z,80.68
2018-08-19T08:21:04.900Z,81.63
2018-08-19T08:22:04.823Z,80.10
2018-08-19T08:23:04.886Z,80.10
2018-08-19T08:24:04.780Z,80.77
2018-08-19T08:25:04.805Z,79.61
2018-08-19T08:26:04.738Z,80.38
2018-08-19T08:27:04.812Z,80.19
2018-08-19T08:28:04.701Z,78.59
2018-08-19T08:29:04.727Z,78.65
2018-08-19T08:30:04.656Z,78.21
2018-08-19T08:31:04.740Z,78.31
2018-08-19T08:32:04.617Z,78.31
2018-08-19T08:33:04.649Z,77.73
2018-08-19T08:34:04.576Z,77.83
2018-08-19T08:35:04.562Z,78.02
2018-08-19T08:36:04.529Z,77.92
2018-08-19T08:37:04.515Z,77.06
2018-08-19T08:38:04.498Z,76.48
2018-08-19T08:39:04.488Z,78.06
2018-08-19T08:40:04.446Z,77.63
2018-08-19T08:41:04.425Z,76.90
2018-08-19T08:42:04.513Z,77.58
2018-08-19T08:43:04.384Z,77.58
2018-08-19T08:44:04.422Z,78.06
2018-08-19T08:45:04.345Z,77.00
2018-08-19T08:46:04.322Z,76.17
2018-08-19T08:47:04.339Z,76.65
2018-08-19T08:48:04.366Z,77.33
2018-08-19T08:49:04.355Z,75.68
2018-08-19T08:50:04.245Z,75.88
2018-08-19T08:51:04.266Z,75.88
2018-08-19T08:52:04.200Z,76.55
2018-08-19T08:53:04.283Z,75.92
2018-08-19T08:54:04.161Z,74.82
2018-08-19T08:55:04.192Z,75.20
2018-08-19T08:56:04.115Z,75.34
2018-08-19T08:57:04.207Z,73.99
2018-08-19T08:58:04.079Z,73.89
2018-08-19T08:59:04.124Z,73.79
2018-08-19T09:00:04.040Z,73.21
2018-08-19T09:01:04.031Z,74.08
2018-08-19T09:02:04.004Z,73.69
2018-08-19T09:03:04.049Z,73.79
2018-08-19T09:04:03.961Z,73.41
2018-08-19T09:05:03.956Z,72.63
2018-08-19T09:06:03.924Z,72.54
2018-08-19T09:07:03.970Z,72.06
2018-08-19T09:08:03.883Z,73.15
2018-08-19T09:09:03.889Z,73.15
2018-08-19T09:10:03.838Z,72.28
2018-08-19T09:11:03.897Z,72.48
2018-08-19T09:12:03.800Z,71.80
2018-08-19T09:13:03.815Z,71.80
2018-08-19T09:14:03.760Z,71.86
2018-08-19T09:15:03.825Z,72.54
2018-08-19T09:16:03.721Z,72.25
2018-08-19T09:17:03.733Z,71.58
2018-08-19T09:18:03.682Z,72.83
2018-08-19T09:19:03.749Z,73.11
2018-08-19T09:20:03.645Z,72.06
2018-08-19T09:21:03.669Z,72.15
2018-08-19T09:22:03.679Z,72.92
2018-08-19T09:23:03.711Z,73.37
2018-08-19T09:24:03.686Z,74.08
2018-08-19T09:25:03.543Z,74.18
2018-08-19T09:26:03.608Z,73.41
2018-08-19T09:27:03.504Z,73.41
2018-08-19T09:28:03.505Z,72.92
2018-08-19T09:29:03.469Z,73.99
2018-08-19T09:30:03.526Z,73.31
2018-08-19T09:31:03.428Z,74.08
2018-08-19T09:32:03.405Z,73.79
2018-08-19T09:33:03.495Z,73.31
2018-08-19T09:34:03.439Z,74.08
2018-08-19T09:35:03.350Z,72.63
2018-08-19T09:36:03.359Z,73.60
2018-08-19T09:37:03.305Z,73.31
2018-08-19T09:38:03.285Z,73.21
2018-08-19T09:39:03.383Z,73.31
2018-08-19T09:40:03.249Z,72.83
2018-08-19T09:41:03.296Z,73.60
2018-08-19T09:42:03.210Z,74.18
2018-08-19T09:43:03.207Z,73.79
2018-08-19T09:44:03.172Z,73.41
2018-08-19T09:45:03.217Z,72.73
2018-08-19T09:46:03.128Z,73.41
2018-08-19T09:47:03.132Z,73.41
2018-08-19T09:48:03.262Z,72.96
2018-08-19T09:49:03.146Z,72.86
2018-08-19T09:50:03.052Z,73.44
2018-08-19T09:51:03.058Z,73.93
2018-08-19T09:52:03.016Z,72.67
2018-08-19T09:53:03.072Z,71.80
2018-08-19T09:54:03.000Z,72.38
2018-08-19T09:55:02.985Z,71.70
2018-08-19T09:56:02.926Z,71.77
2018-08-19T09:57:03.002Z,71.86
2018-08-19T09:58:02.901Z,72.48
2018-08-19T09:59:02.908Z,72.96
2018-08-19T10:00:02.861Z,72.09
2018-08-19T10:01:02.923Z,72.19
2018-08-19T10:02:02.823Z,71.61
2018-08-19T10:03:02.846Z,72.67
2018-08-19T10:04:02.780Z,71.61
2018-08-19T10:05:02.849Z,71.74
2018-08-19T10:06:02.742Z,71.74
2018-08-19T10:07:02.760Z,70.78
2018-08-19T10:08:02.705Z,70.97
2018-08-19T10:09:02.774Z,69.81
2018-08-19T10:10:02.667Z,71.68
2018-08-19T10:11:02.687Z,69.30
2018-08-19T10:12:02.627Z,69.01
2018-08-19T10:13:02.700Z,69.01
2018-08-19T10:14:02.591Z,67.56
2018-08-19T10:15:02.617Z,68.72
2018-08-19T10:16:02.548Z,67.75
2018-08-19T10:17:02.633Z,67.66
2018-08-19T10:18:02.513Z,66.11
2018-08-19T10:19:02.539Z,66.78
2018-08-19T10:20:02.477Z,67.75
2018-08-19T10:21:02.555Z,67.85
2018-08-19T10:22:02.443Z,66.01
2018-08-19T10:23:02.467Z,66.40
2018-08-19T10:24:02.441Z,66.20
2018-08-19T10:25:02.482Z,66.36
2018-08-19T10:26:02.366Z,66.85
2018-08-19T10:27:02.391Z,67.14
2018-08-19T10:28:02.329Z,67.72
2018-08-19T10:29:02.410Z,68.10
2018-08-19T10:30:02.289Z,67.14
2018-08-19T10:31:02.319Z,67.82
2018-08-19T10:32:02.253Z,68.49
2018-08-19T10:33:02.331Z,68.88
2018-08-19T10:34:02.216Z,69.56
2018-08-19T10:35:02.244Z,68.14
2018-08-19T10:36:02.178Z,67.85
2018-08-19T10:37:02.259Z,67.17
2018-08-19T10:38:02.156Z,67.66
2018-08-19T10:39:02.211Z,67.56
2018-08-19T10:40:02.103Z,66.59
2018-08-19T10:41:02.187Z,66.24
2018-08-19T10:42:02.066Z,66.33
2018-08-19T10:43:02.097Z,65.98
2018-08-19T10:44:02.034Z,66.47
2018-08-19T10:45:02.113Z,63.76
2018-08-19T10:46:01.994Z,63.27
2018-08-19T10:47:02.022Z,63.63
2018-08-19T10:48:01.950Z,64.89
2018-08-19T10:49:02.038Z,65.66
2018-08-19T10:50:01.919Z,65.75
2018-08-19T10:51:01.954Z,64.79
2018-08-19T10:52:01.895Z,66.37
2018-08-19T10:53:01.964Z,66.37
2018-08-19T10:54:01.848Z,64.17
2018-08-19T10:55:01.874Z,64.47
2018-08-19T10:56:01.812Z,62.01
2018-08-19T10:57:01.891Z,63.76
2018-08-19T10:58:01.775Z,64.04
2018-08-19T10:59:01.795Z,64.43
2018-08-19T11:00:01.745Z,63.66
2018-08-19T11:01:01.819Z,64.53
2018-08-19T11:02:01.703Z,65.50
2018-08-19T11:03:01.737Z,63.89
2018-08-19T11:04:01.673Z,64.95
2018-08-19T11:05:01.744Z,63.49
2018-08-19T11:06:01.632Z,63.21
2018-08-19T11:07:01.656Z,62.92
2018-08-19T11:08:01.598Z,63.69
2018-08-19T11:09:01.672Z,63.98
2018-08-19T11:10:01.559Z,62.82
2018-08-19T11:11:01.584Z,63.49
2018-08-19T11:12:01.530Z,63.21
2018-08-19T11:13:01.602Z,62.72
2018-08-19T11:14:01.493Z,62.82
2018-08-19T11:15:01.510Z,62.92
2018-08-19T11:16:01.461Z,62.17
2018-08-19T11:17:01.523Z,63.46
2018-08-19T11:18:01.428Z,61.33
2018-08-19T11:19:01.436Z,60.65
2018-08-19T11:20:01.388Z,61.24
2018-08-19T11:21:01.502Z,59.97
2018-08-19T11:22:01.353Z,60.62
2018-08-19T11:23:01.371Z,62.46
2018-08-19T11:24:01.341Z,63.43
2018-08-19T11:25:01.381Z,61.30
2018-08-19T11:26:01.285Z,61.24
2018-08-19T11:27:01.291Z,61.79
2018-08-19T11:28:01.250Z,61.40
2018-08-19T11:29:01.298Z,62.98
2018-08-19T11:30:01.216Z,62.72
2018-08-19T11:31:01.216Z,61.94
2018-08-19T11:32:01.184Z,60.97
2018-08-19T11:33:01.228Z,60.42
2018-08-19T11:34:01.215Z,59.33
2018-08-19T11:35:01.246Z,60.30
2018-08-19T11:36:01.118Z,60.58
2018-08-19T11:37:01.157Z,60.49
2018-08-19T11:38:01.087Z,60.88
2018-08-19T11:39:01.172Z,60.46
2018-08-19T11:40:01.049Z,61.30
2018-08-19T11:41:01.084Z,61.49
2018-08-19T11:42:01.020Z,61.79
2018-08-19T11:43:01.097Z,62.07
2018-08-19T11:44:00.980Z,61.79
2018-08-19T11:45:01.008Z,63.82
2018-08-19T11:46:00.947Z,62.85
2018-08-19T11:47:01.025Z,63.24
2018-08-19T11:48:00.912Z,62.85
2018-08-19T11:49:00.938Z,62.01
2018-08-19T11:50:00.878Z,62.98
2018-08-19T11:51:00.953Z,62.20
2018-08-19T11:52:00.846Z,60.85
2018-08-19T11:53:00.861Z,61.30
2018-08-19T11:54:00.812Z,61.98
2018-08-19T11:55:00.877Z,63.34
2018-08-19T11:56:00.780Z,62.85
2018-08-19T11:57:00.788Z,62.85
2018-08-19T11:58:00.748Z,61.69
2018-08-19T11:59:00.802Z,61.40
2018-08-19T12:00:00.713Z,61.72
2018-08-19T12:01:00.760Z,60.85
2018-08-19T12:02:00.694Z,61.14
2018-08-19T12:03:00.728Z,61.94
2018-08-19T12:04:00.643Z,61.17
2018-08-19T12:05:00.649Z,62.43
2018-08-19T12:06:00.611Z,60.23
2018-08-19T12:07:00.656Z,60.42
2018-08-19T12:08:00.601Z,61.04
2018-08-19T12:09:00.667Z,59.28
2018-08-19T12:10:00.542Z,58.31
2018-08-19T12:11:00.682Z,58.41
2018-08-19T12:12:00.692Z,58.87
2018-08-19T12:13:00.495Z,60.13
2018-08-19T12:14:00.601Z,59.74
2018-08-19T12:15:00.500Z,60.74
2018-08-19T12:16:00.618Z,59.00
2018-08-19T12:17:00.469Z,57.93
2018-08-19T12:18:00.444Z,56.76
2018-08-19T12:19:00.395Z,60.19
2018-08-19T12:20:00.457Z,58.54
2018-08-19T12:21:00.365Z,59.05
2018-08-19T12:22:00.458Z,57.14
2018-08-19T12:23:00.331Z,55.98
2018-08-19T12:24:00.472Z,56.04
2018-08-19T12:25:00.298Z,57.21
2018-08-19T12:26:00.383Z,59.70
2018-08-19T12:27:00.271Z,57.18
2018-08-19T12:28:00.404Z,56.28
2018-08-19T12:29:00.228Z,57.61
2018-08-19T12:30:00.229Z,57.73
2018-08-19T12:31:00.287Z,58.03
2018-08-19T12:32:00.348Z,57.08
2018-08-19T12:33:00.171Z,57.18
2018-08-19T12:34:00.335Z,56.62
2018-08-19T12:35:00.160Z,56.34
2018-08-19T12:36:00.257Z,56.72
2018-08-19T12:37:00.127Z,56.92
2018-08-19T12:38:00.263Z,55.33
2018-08-19T12:39:00.078Z,56.52
2018-08-19T12:40:00.169Z,55.33
2018-08-19T12:41:00.046Z,55.41
2018-08-19T12:42:00.086Z,57.15
2018-08-19T12:43:00.015Z,57.57
2018-08-19T12:44:00.104Z,57.21
2018-08-19T12:44:59.983Z,57.28
2018-08-19T12:46:00.002Z,56.79
2018-08-19T12:46:59.951Z,57.21
2018-08-19T12:48:00.026Z,56.24
2018-08-19T12:48:59.923Z,56.95
2018-08-19T12:49:59.922Z,56.07
2018-08-19T12:50:59.887Z,55.98
2018-08-19T12:51:59.957Z,55.07
2018-08-19T12:52:59.862Z,56.36
2018-08-19T12:53:59.968Z,55.65
2018-08-19T12:54:59.826Z,56.26
2018-08-19T12:55:59.939Z,55.68
2018-08-19T12:56:59.796Z,55.51
2018-08-19T12:57:59.893Z,55.05
2018-08-19T12:58:59.767Z,54.28
2018-08-19T12:59:59.811Z,54.47
2018-08-19T13:00:59.746Z,54.57
2018-08-19T13:01:59.824Z,55.35
2018-08-19T13:02:59.704Z,54.86
2018-08-19T13:03:59.735Z,54.60
2018-08-19T13:04:59.677Z,52.82
2018-08-19T13:05:59.749Z,54.25
2018-08-19T13:06:59.651Z,54.13
2018-08-19T13:07:59.806Z,54.42
2018-08-19T13:08:59.621Z,55.00
2018-08-19T13:09:59.696Z,55.00
2018-08-19T13:10:59.591Z,55.39
2018-08-19T13:11:59.724Z,55.19
2018-08-19T13:12:59.548Z,55.58
2018-08-19T13:13:59.553Z,54.74
2018-08-19T13:14:59.524Z,54.64
2018-08-19T13:15:59.614Z,53.67